createdAt,value
2018-07-28T00:01:07.453Z,5.58
2018-07-28T00:03:37.982Z,5.40
2018-07-28T00:06:09.260Z,5.50
2018-07-28T00:08:40.389Z,4.62
2018-07-28T00:11:11.953Z,5.40
2018-07-28T00:13:42.966Z,5.58
2018-07-28T00:16:13.804Z,5.70
2018-07-28T00:18:47.020Z,5.17
2018-07-28T00:21:18.744Z,5.62
2018-07-28T00:23:50.632Z,5.65
2018-07-28T00:26:23.400Z,5.30
2018-07-28T00:28:56.251Z,5.28
2018-07-28T00:31:27.945Z,5.87
2018-07-28T00:33:58.148Z,6.15
2018-07-28T00:36:34.440Z,5.40
2018-07-28T00:39:09.469Z,5.37
2018-07-28T00:41:41.524Z,5.28
2018-07-28T00:44:11.621Z,5.33
2018-07-28T00:46:44.118Z,5.70
2018-07-28T00:49:17.103Z,5.33
2018-07-28T00:51:49.733Z,5.37
2018-07-28T00:54:22.034Z,5.42
2018-07-28T00:56:53.178Z,5.60
2018-07-28T00:59:23.618Z,5.53
2018-07-28T01:01:53.456Z,5.47
2018-07-28T01:04:22.536Z,5.05
2018-07-28T01:06:55.446Z,5.33
2018-07-28T01:09:25.516Z,5.58
2018-07-28T01:11:59.885Z,5.37
2018-07-28T01:14:33.156Z,6.10
2018-07-28T01:17:06.170Z,5.60
2018-07-28T01:19:37.463Z,6.10
2018-07-28T01:22:10.186Z,5.78
2018-07-28T01:24:41.068Z,5.65
2018-07-28T01:27:11.777Z,5.60
2018-07-28T01:29:42.392Z,5.50
2018-07-28T01:32:11.314Z,6.20
2018-07-28T01:34:42.691Z,6.40
2018-07-28T01:37:19.568Z,6.03
2018-07-28T01:39:51.048Z,5.85
2018-07-28T01:42:21.589Z,5.97
2018-07-28T01:44:50.772Z,6.37
2018-07-28T01:47:21.288Z,5.97
2018-07-28T01:49:53.957Z,5.90
2018-07-28T01:52:23.388Z,5.92
2018-07-28T01:54:55.349Z,6.50
2018-07-28T01:57:25.606Z,6.12
2018-07-28T02:02:36.968Z,6.47
2018-07-28T02:05:10.477Z,6.37
2018-07-28T02:07:40.081Z,6.00
2018-07-28T02:10:16.833Z,6.10
2018-07-28T02:12:50.963Z,6.22
2018-07-28T02:15:20.448Z,6.00
2018-07-28T02:17:50.900Z,6.17
2018-07-28T02:20:22.646Z,6.33
2018-07-28T02:22:55.237Z,5.85
2018-07-28T02:25:26.268Z,6.53
2018-07-28T02:28:08.156Z,6.40
2018-07-28T02:30:39.223Z,6.10
2018-07-28T02:33:10.261Z,6.20
2018-07-28T02:35:39.324Z,6.05
2018-07-28T02:38:10.692Z,6.05
2018-07-28T02:40:41.851Z,5.97
2018-07-28T02:43:13.392Z,5.95
2018-07-28T02:45:43.810Z,6.45
2018-07-28T02:48:15.366Z,6.37
2018-07-28T02:50:46.732Z,6.42
2018-07-28T02:53:18.873Z,6.22
2018-07-28T02:55:50.033Z,6.08
2018-07-28T02:58:19.641Z,6.37
2018-07-28T03:00:50.112Z,6.58
2018-07-28T03:03:20.802Z,6.87
2018-07-28T03:05:56.430Z,6.53
2018-07-28T03:08:33.731Z,6.10
2018-07-28T03:11:05.453Z,6.58
2018-07-28T03:13:36.267Z,6.20
2018-07-28T03:16:17.349Z,6.12
2018-07-28T03:18:49.424Z,6.58
2018-07-28T03:21:34.229Z,6.83
2018-07-28T03:24:05.878Z,6.92
2018-07-28T03:26:38.405Z,7.12
2018-07-28T03:29:11.560Z,6.70
2018-07-28T03:31:44.338Z,6.83
2018-07-28T03:34:17.263Z,6.97
2018-07-28T03:36:48.268Z,6.42
2018-07-28T03:39:24.748Z,6.83
2018-07-28T03:41:55.171Z,7.10
2018-07-28T03:44:26.420Z,7.47
2018-07-28T03:46:56.253Z,7.47
2018-07-28T03:49:29.429Z,6.87
2018-07-28T03:52:03.664Z,6.92
2018-07-28T03:54:34.149Z,6.67
2018-07-28T03:57:05.028Z,6.72
2018-07-28T03:59:36.596Z,6.87
2018-07-28T04:02:14.044Z,6.95
2018-07-28T04:04:45.077Z,6.90
2018-07-28T04:07:15.089Z,7.00
2018-07-28T04:09:46.624Z,6.70
2018-07-28T04:12:18.942Z,6.65
2018-07-28T04:14:50.821Z,6.72
2018-07-28T04:17:20.781Z,6.58
2018-07-28T04:19:55.285Z,7.17
2018-07-28T04:22:26.045Z,6.40
2018-07-28T04:24:58.091Z,6.47
2018-07-28T04:27:29.854Z,6.85
2018-07-28T04:30:00.278Z,6.08
2018-07-28T04:32:32.221Z,6.60
2018-07-28T04:35:01.821Z,5.92
2018-07-28T04:37:36.960Z,6.78
2018-07-28T04:40:13.065Z,6.08
2018-07-28T04:42:43.741Z,6.28
2018-07-28T04:45:19.042Z,5.95
2018-07-28T04:47:51.006Z,5.87
2018-07-28T04:50:21.946Z,6.15
2018-07-28T04:52:53.780Z,5.90
2018-07-28T04:55:25.545Z,5.75
2018-07-28T04:57:56.708Z,5.97
2018-07-28T05:00:35.165Z,6.22
2018-07-28T05:03:08.933Z,6.08
2018-07-28T05:05:42.993Z,5.72
2018-07-28T05:08:13.373Z,5.70
2018-07-28T05:10:49.117Z,5.53
2018-07-28T05:13:18.684Z,5.80
2018-07-28T05:15:47.949Z,5.78
2018-07-28T05:18:22.374Z,5.80
2018-07-28T05:20:53.998Z,5.50
2018-07-28T05:23:26.248Z,5.67
2018-07-28T05:25:56.057Z,6.10
2018-07-28T05:28:26.076Z,5.65
2018-07-28T05:30:55.684Z,5.95
2018-07-28T05:33:27.420Z,5.83
2018-07-28T05:36:01.597Z,5.72
2018-07-28T05:38:31.057Z,5.72
2018-07-28T05:41:01.307Z,6.00
2018-07-28T05:43:31.710Z,5.62
2018-07-28T05:46:08.445Z,5.75
2018-07-28T05:48:40.948Z,5.70
2018-07-28T05:51:11.383Z,6.15
2018-07-28T05:53:45.090Z,5.78
2018-07-28T05:56:17.636Z,5.58
2018-07-28T05:58:50.044Z,5.90
2018-07-28T06:01:20.373Z,5.53
2018-07-28T06:03:50.817Z,5.60
2018-07-28T06:06:21.905Z,6.17
2018-07-28T06:08:57.245Z,6.33
2018-07-28T06:11:35.740Z,6.20
2018-07-28T06:14:11.753Z,6.00
2018-07-28T06:19:24.466Z,6.03
2018-07-28T06:22:14.543Z,6.00
2018-07-28T06:24:53.988Z,6.75
2018-07-28T06:27:47.244Z,5.97
2018-07-28T06:30:25.724Z,6.20
2018-07-28T06:32:59.776Z,6.05
2018-07-28T06:35:36.516Z,5.75
2018-07-28T06:38:16.265Z,5.80
2018-07-28T06:41:05.145Z,6.10
2018-07-28T06:43:55.365Z,6.12
2018-07-28T06:46:30.792Z,5.87
2018-07-28T06:49:04.312Z,5.80
2018-07-28T06:51:43.306Z,6.00
2018-07-28T06:54:16.473Z,5.60
2018-07-28T06:56:49.095Z,5.70
2018-07-28T06:59:21.932Z,5.80
2018-07-28T07:01:55.401Z,5.60
2018-07-28T07:04:25.301Z,5.53
2018-07-28T07:06:58.388Z,5.95
2018-07-28T07:09:32.728Z,5.50
2018-07-28T07:12:02.941Z,5.87
2018-07-28T07:14:32.249Z,5.35
2018-07-28T07:17:01.899Z,5.30
2018-07-28T07:19:31.045Z,5.42
2018-07-28T07:21:59.881Z,5.30
2018-07-28T07:24:29.325Z,5.30
2018-07-28T07:26:58.368Z,5.10
2018-07-28T07:29:27.513Z,5.17
2018-07-28T07:31:57.220Z,4.95
2018-07-28T07:34:26.333Z,5.40
2018-07-28T07:36:55.388Z,4.80
2018-07-28T07:39:25.292Z,5.10
2018-07-28T07:41:55.453Z,4.80
2018-07-28T07:44:27.279Z,4.97
2018-07-28T07:46:57.337Z,5.17
2018-07-28T07:49:27.193Z,5.10
2018-07-28T07:51:56.415Z,5.20
2018-07-28T07:54:27.776Z,4.78
2018-07-28T07:56:57.287Z,4.87
2018-07-28T07:59:26.409Z,4.70
2018-07-28T08:01:55.283Z,4.58
2018-07-28T08:04:25.089Z,4.80
2018-07-28T08:06:55.436Z,4.90
2018-07-28T08:09:24.916Z,4.75
2018-07-28T08:11:54.489Z,5.10
2018-07-28T08:14:25.728Z,4.67
2018-07-28T08:16:56.840Z,4.78
2018-07-28T08:19:25.703Z,4.85
2018-07-28T08:21:56.627Z,4.62
2018-07-28T08:24:30.000Z,4.85
2018-07-28T08:27:01.241Z,4.37
2018-07-28T08:29:33.561Z,4.47
2018-07-28T08:32:04.453Z,4.80
2018-07-28T08:34:36.564Z,4.67
2018-07-28T08:37:07.506Z,4.00
2018-07-28T08:39:40.339Z,3.87
2018-07-28T08:42:09.966Z,3.92
2018-07-28T08:44:41.663Z,3.45
2018-07-28T08:47:11.692Z,3.35
2018-07-28T08:49:40.937Z,3.40
2018-07-28T08:52:12.679Z,3.10
2018-07-28T08:54:46.292Z,2.80
2018-07-28T08:57:21.316Z,2.42
2018-07-28T08:59:51.796Z,2.52
2018-07-28T09:02:21.992Z,2.50
2018-07-28T09:04:51.935Z,2.33
2018-07-28T09:07:22.308Z,2.58
2018-07-28T09:09:52.769Z,2.33
2018-07-28T09:12:25.107Z,2.40
2018-07-28T09:14:54.969Z,2.65
2018-07-28T09:17:27.436Z,2.47
2018-07-28T09:19:58.381Z,2.77
2018-07-28T09:22:28.084Z,2.55
2018-07-28T09:24:58.605Z,2.90
2018-07-28T09:27:33.302Z,2.90
2018-07-28T09:30:03.444Z,3.00
2018-07-28T09:32:34.788Z,2.98
2018-07-28T09:35:03.974Z,3.17
2018-07-28T09:37:38.644Z,3.02
2018-07-28T09:40:09.652Z,3.12
2018-07-28T09:42:42.392Z,3.22
2018-07-28T09:45:13.385Z,3.58
2018-07-28T09:47:47.216Z,3.20
2018-07-28T09:50:22.228Z,3.15
2018-07-28T09:52:52.445Z,2.95
2018-07-28T09:55:22.805Z,3.15
2018-07-28T09:58:01.929Z,3.00
2018-07-28T10:00:37.259Z,3.00
2018-07-28T10:03:09.041Z,3.02
2018-07-28T10:05:38.856Z,3.08
2018-07-28T10:08:08.428Z,3.00
2018-07-28T10:10:41.402Z,3.30
2018-07-28T10:13:12.098Z,3.12
2018-07-28T10:15:51.566Z,3.60
2018-07-28T10:18:26.162Z,3.20
2018-07-28T10:20:59.224Z,3.45
2018-07-28T10:23:28.679Z,3.30
2018-07-28T10:26:09.565Z,3.22
2018-07-28T10:28:39.397Z,3.42
2018-07-28T10:31:12.554Z,3.52
2018-07-28T10:33:48.936Z,3.30
2018-07-28T10:36:20.660Z,3.37
2018-07-28T10:38:51.364Z,3.22
2018-07-28T10:41:23.104Z,3.60
2018-07-28T10:43:54.627Z,3.87
2018-07-28T10:46:26.345Z,3.92
2018-07-28T10:48:56.212Z,4.00
2018-07-28T10:51:29.700Z,3.47
2018-07-28T10:53:59.640Z,3.67
2018-07-28T10:56:29.231Z,3.60
2018-07-28T10:58:59.676Z,4.10
2018-07-28T11:01:37.257Z,4.00
2018-07-28T11:04:08.821Z,4.20
2018-07-28T11:06:39.014Z,4.10
2018-07-28T11:09:11.690Z,3.90
2018-07-28T11:11:42.744Z,4.10
2018-07-28T11:14:14.101Z,4.15
2018-07-28T11:16:48.822Z,3.90
2018-07-28T11:19:19.065Z,3.92
2018-07-28T11:21:48.808Z,4.40
2018-07-28T11:24:19.768Z,3.90
2018-07-28T11:26:51.916Z,4.05
2018-07-28T11:29:21.797Z,4.10
2018-07-28T11:32:08.157Z,4.40
2018-07-28T11:34:54.908Z,4.45
2018-07-28T11:39:45.906Z,4.67
2018-07-28T11:42:35.069Z,4.30
2018-07-28T11:45:19.387Z,4.15
2018-07-28T11:47:49.097Z,4.05
2018-07-28T11:50:21.100Z,4.72
2018-07-28T11:52:52.445Z,4.40
2018-07-28T11:55:26.289Z,4.85
2018-07-28T11:57:56.719Z,4.90
2018-07-28T12:00:26.336Z,4.97
2018-07-28T12:02:58.278Z,4.87
2018-07-28T12:05:27.881Z,4.78
2018-07-28T12:07:58.752Z,5.17
2018-07-28T12:10:33.648Z,5.12
2018-07-28T12:13:05.084Z,4.87
2018-07-28T12:15:37.050Z,5.53
2018-07-28T12:18:06.872Z,5.10
2018-07-28T12:20:36.784Z,5.37
2018-07-28T12:23:07.460Z,5.40
2018-07-28T12:25:38.857Z,5.17
2018-07-28T12:28:10.925Z,5.40
2018-07-28T12:30:43.833Z,5.40
2018-07-28T12:33:14.240Z,5.53
2018-07-28T12:35:45.967Z,5.78
2018-07-28T12:38:20.221Z,6.25
2018-07-28T12:40:49.917Z,5.42
2018-07-28T12:43:24.588Z,5.53
2018-07-28T12:46:00.601Z,5.97
2018-07-28T12:48:36.432Z,6.05
2018-07-28T12:51:07.505Z,6.12
2018-07-28T12:53:41.886Z,5.60
2018-07-28T12:56:15.571Z,5.97
2018-07-28T12:58:53.363Z,5.92
2018-07-28T13:01:26.781Z,6.25
2018-07-28T13:04:00.625Z,6.03
2018-07-28T13:06:32.437Z,6.05
2018-07-28T13:09:11.209Z,6.20
2018-07-28T13:11:46.045Z,6.03
2018-07-28T13:14:20.516Z,5.87
2018-07-28T13:16:50.575Z,5.87
2018-07-28T13:19:24.387Z,6.00
2018-07-28T13:21:55.121Z,6.25
2018-07-28T13:24:28.877Z,5.70
2018-07-28T13:27:00.278Z,5.87
2018-07-28T13:29:31.665Z,6.00
2018-07-28T13:32:04.410Z,6.00
2018-07-28T13:34:35.726Z,6.00
2018-07-28T13:37:07.411Z,6.20
2018-07-28T13:39:37.232Z,6.05
2018-07-28T13:42:12.226Z,5.87
2018-07-28T13:44:47.744Z,5.83
2018-07-28T13:47:18.949Z,5.60
2018-07-28T13:49:53.263Z,6.00
2018-07-28T13:52:23.691Z,5.22
2018-07-28T13:54:58.338Z,5.30
2018-07-28T13:57:30.544Z,5.40
2018-07-28T14:02:41.843Z,4.85
2018-07-28T14:07:49.293Z,4.92
2018-07-28T14:10:19.209Z,5.15
2018-07-28T14:12:48.669Z,4.80
2018-07-28T14:15:17.959Z,4.65
2018-07-28T14:17:51.526Z,4.35
2018-07-28T14:20:23.149Z,4.80
2018-07-28T14:22:53.322Z,4.37
2018-07-28T14:25:24.130Z,4.67
2018-07-28T14:27:56.531Z,4.05
2018-07-28T14:30:27.316Z,4.70
2018-07-28T14:32:58.981Z,4.42
2018-07-28T14:35:29.626Z,4.12
2018-07-28T14:37:59.335Z,4.60
2018-07-28T14:40:28.538Z,4.45
2018-07-28T14:43:01.249Z,4.45
2018-07-28T14:45:32.608Z,4.40
2018-07-28T14:48:01.731Z,4.58
2018-07-28T14:50:33.471Z,4.17
2018-07-28T14:53:04.132Z,4.08
2018-07-28T14:55:35.097Z,4.50
2018-07-28T14:58:05.188Z,4.50
2018-07-28T15:00:39.016Z,4.53
2018-07-28T15:03:10.211Z,3.98
2018-07-28T15:05:41.656Z,4.50
2018-07-28T15:08:16.285Z,4.08
2018-07-28T15:10:48.129Z,4.37
2018-07-28T15:13:22.006Z,4.65
2018-07-28T15:16:04.894Z,4.25
2018-07-28T15:18:37.136Z,4.20
2018-07-28T15:21:12.572Z,4.03
2018-07-28T15:23:47.964Z,4.33
2018-07-28T15:26:20.114Z,4.60
2018-07-28T15:29:02.724Z,4.40
2018-07-28T15:31:37.829Z,4.30
2018-07-28T15:34:20.809Z,4.30
2018-07-28T15:37:20.210Z,4.42
2018-07-28T15:39:54.317Z,4.47
2018-07-28T15:42:34.842Z,4.17
2018-07-28T15:45:17.495Z,4.58
2018-07-28T15:47:55.130Z,4.20
2018-07-28T15:50:34.609Z,4.45
2018-07-28T15:53:09.750Z,4.37
2018-07-28T15:55:49.487Z,4.20
2018-07-28T15:58:31.106Z,4.30
2018-07-28T16:03:40.238Z,4.60
2018-07-28T16:06:11.390Z,4.80
2018-07-28T16:08:43.976Z,4.40
2018-07-28T16:11:14.948Z,4.58
2018-07-28T16:13:47.222Z,4.17
2018-07-28T16:16:17.392Z,4.20
2018-07-28T16:18:46.505Z,4.70
2018-07-28T16:21:17.202Z,4.83
2018-07-28T16:23:46.519Z,4.35
2018-07-28T16:26:15.590Z,4.67
2018-07-28T16:28:44.760Z,4.33
2018-07-28T16:31:14.368Z,4.20
2018-07-28T16:33:47.129Z,4.08
2018-07-28T16:36:16.987Z,4.22
2018-07-28T16:38:46.161Z,4.65
2018-07-28T16:41:15.444Z,4.40
2018-07-28T16:43:45.844Z,4.40
2018-07-28T16:46:15.566Z,3.92
2018-07-28T16:48:44.621Z,4.28
2018-07-28T16:51:15.271Z,3.65
2018-07-28T16:53:44.373Z,3.22
2018-07-28T16:56:14.113Z,3.40
2018-07-28T16:58:44.497Z,2.92
2018-07-28T17:01:13.605Z,2.98
2018-07-28T17:03:43.120Z,2.70
2018-07-28T17:06:14.154Z,2.52
2018-07-28T17:08:46.298Z,2.83
2018-07-28T17:11:16.033Z,2.60
2018-07-28T17:13:45.328Z,2.75
2018-07-28T17:16:14.540Z,2.75
2018-07-28T17:18:45.739Z,2.95
2018-07-28T17:21:16.425Z,2.55
2018-07-28T17:23:47.395Z,3.00
2018-07-28T17:26:21.456Z,2.90
2018-07-28T17:28:59.044Z,2.65
2018-07-28T17:31:29.789Z,3.00
2018-07-28T17:34:00.616Z,2.60
2018-07-28T17:36:32.574Z,2.95
2018-07-28T17:39:02.701Z,2.58
2018-07-28T17:41:34.661Z,2.87
2018-07-28T17:44:04.277Z,3.10
2018-07-28T17:46:35.493Z,2.70
2018-07-28T17:49:09.041Z,2.90
2018-07-28T17:51:40.836Z,2.90
2018-07-28T17:54:12.311Z,2.55
2018-07-28T17:56:42.969Z,2.95
2018-07-28T17:59:13.753Z,2.98
2018-07-28T18:01:52.299Z,2.70
2018-07-28T18:04:21.416Z,2.90
2018-07-28T18:06:52.435Z,2.40
2018-07-28T18:09:23.607Z,2.60
2018-07-28T18:12:03.190Z,2.87
2018-07-28T18:14:34.744Z,2.70
2018-07-28T18:17:05.525Z,2.72
2018-07-28T18:19:37.590Z,2.45
2018-07-28T18:22:08.004Z,2.72
2018-07-28T18:24:39.568Z,2.95
2018-07-28T18:27:10.542Z,2.60
2018-07-28T18:29:40.839Z,2.35
2018-07-28T18:32:12.901Z,2.55
2018-07-28T18:34:41.985Z,2.77
2018-07-28T18:37:12.328Z,2.20
2018-07-28T18:39:45.500Z,2.20
2018-07-28T18:42:16.028Z,2.52
2018-07-28T18:44:47.581Z,2.62
2018-07-28T18:47:18.919Z,2.45
2018-07-28T18:49:49.045Z,2.67
2018-07-28T18:52:19.964Z,2.10
2018-07-28T18:54:49.519Z,2.47
2018-07-28T18:57:24.507Z,2.30
2018-07-28T18:59:56.467Z,2.30
2018-07-28T19:02:30.701Z,2.05
2018-07-28T19:05:01.009Z,2.08
2018-07-28T19:07:30.238Z,2.12
2018-07-28T19:10:02.879Z,2.10
2018-07-28T19:12:37.988Z,2.22
2018-07-28T19:15:09.496Z,2.12
2018-07-28T19:17:45.649Z,2.15
2018-07-28T19:20:21.908Z,2.20
2018-07-28T19:22:57.521Z,2.15
2018-07-28T19:25:27.393Z,2.30
2018-07-28T19:28:03.828Z,1.95
2018-07-28T19:30:34.056Z,2.30
2018-07-28T19:33:06.658Z,2.20
2018-07-28T19:35:43.535Z,2.05
2018-07-28T19:38:14.986Z,2.42
2018-07-28T19:40:45.916Z,2.00
2018-07-28T19:43:15.481Z,2.25
2018-07-28T19:45:46.397Z,1.80
2018-07-28T19:48:17.590Z,2.08
2018-07-28T19:50:51.625Z,2.40
2018-07-28T19:53:27.397Z,2.00
2018-07-28T19:55:59.545Z,2.42
2018-07-28T19:58:32.025Z,2.60
2018-07-28T20:01:03.664Z,2.20
2018-07-28T20:03:35.309Z,2.12
2018-07-28T20:06:09.008Z,2.20
2018-07-28T20:08:43.269Z,2.02
2018-07-28T20:11:16.337Z,2.10
2018-07-28T20:13:49.200Z,2.20
2018-07-28T20:16:21.365Z,2.22
2018-07-28T20:18:52.248Z,2.00
2018-07-28T20:21:22.703Z,2.20
2018-07-28T20:23:54.944Z,2.10
2018-07-28T20:26:25.486Z,1.90
2018-07-28T20:28:55.263Z,2.17
2018-07-28T20:31:25.162Z,2.05
2018-07-28T20:33:55.190Z,2.22
2018-07-28T20:36:25.313Z,2.42
2018-07-28T20:38:58.728Z,2.20
2018-07-28T20:41:28.921Z,2.10
2018-07-28T20:44:02.848Z,2.20
2018-07-28T20:46:32.848Z,2.05
2018-07-28T20:49:04.231Z,2.02
2018-07-28T20:51:38.830Z,2.40
2018-07-28T20:54:09.874Z,2.10
2018-07-28T20:56:44.409Z,1.90
2018-07-28T20:59:18.595Z,2.40
2018-07-28T21:01:48.951Z,2.22
2018-07-28T21:04:18.457Z,2.30
2018-07-28T21:06:47.937Z,2.17
2018-07-28T21:09:23.995Z,2.17
2018-07-28T21:11:54.278Z,2.52
2018-07-28T21:14:26.757Z,2.45
2018-07-28T21:16:57.940Z,2.45
2018-07-28T21:19:29.959Z,2.42
2018-07-28T21:21:59.913Z,2.10
2018-07-28T21:24:31.012Z,2.20
2018-07-28T21:27:02.105Z,2.35
2018-07-28T21:29:31.300Z,2.40
2018-07-28T21:32:04.060Z,2.12
2018-07-28T21:34:42.497Z,2.08
2018-07-28T21:37:16.001Z,1.90
2018-07-28T21:39:52.085Z,2.20
2018-07-28T21:42:24.839Z,2.10
2018-07-28T21:44:58.462Z,2.20
2018-07-28T21:47:34.364Z,2.08
2018-07-28T21:50:07.040Z,2.55
2018-07-28T21:52:38.497Z,2.00
2018-07-28T21:55:08.649Z,2.25
2018-07-28T21:57:45.300Z,1.98
2018-07-28T22:00:19.027Z,2.05
2018-07-28T22:02:53.616Z,2.20
2018-07-28T22:05:24.388Z,2.45
2018-07-28T22:07:56.317Z,1.90
2018-07-28T22:10:31.048Z,1.90
2018-07-28T22:13:02.593Z,2.20
2018-07-28T22:15:33.414Z,1.87
2018-07-28T22:18:06.861Z,2.10
2018-07-28T22:20:43.938Z,2.35
2018-07-28T22:23:15.544Z,2.40
2018-07-28T22:25:46.230Z,2.40
2018-07-28T22:28:19.175Z,2.30
2018-07-28T22:30:49.936Z,2.50
2018-07-28T22:33:19.162Z,2.52
2018-07-28T22:35:52.071Z,2.40
2018-07-28T22:38:23.645Z,2.60
2018-07-28T22:40:55.636Z,2.33
2018-07-28T22:43:29.872Z,2.40
2018-07-28T22:46:03.504Z,2.45
2018-07-28T22:48:34.006Z,2.22
2018-07-28T22:51:07.460Z,2.20
2018-07-28T22:53:38.777Z,2.58
2018-07-28T22:56:10.728Z,2.58
2018-07-28T22:58:43.585Z,2.70
2018-07-28T23:01:17.315Z,2.62
2018-07-28T23:03:47.832Z,2.75
2018-07-28T23:06:18.848Z,2.47
2018-07-28T23:08:51.352Z,2.70
2018-07-28T23:11:25.999Z,2.65
2018-07-28T23:13:55.997Z,2.65
2018-07-28T23:16:27.163Z,2.55
2018-07-28T23:18:57.466Z,2.58
2018-07-28T23:21:30.604Z,2.50
2018-07-28T23:24:02.293Z,2.80
2018-07-28T23:26:39.016Z,2.58
2018-07-28T23:29:12.681Z,2.52
2018-07-28T23:31:44.857Z,2.60
2018-07-28T23:34:15.021Z,2.58
2018-07-28T23:36:46.900Z,2.47
2018-07-28T23:39:19.287Z,2.98
2018-07-28T23:41:50.832Z,2.67
2018-07-28T23:44:24.073Z,2.67
2018-07-28T23:46:55.305Z,2.90
2018-07-28T23:49:25.585Z,2.77
2018-07-28T23:51:54.517Z,2.87
2018-07-28T23:54:27.421Z,2.62
2018-07-28T23:56:57.671Z,2.98
2018-07-28T23:59:32.677Z,2.70
